Terminal Aerodrome Forecast
Issued by NWS Los Angeles, CA

Home | Current Version | Previous Version | Text Only | Print | Product List | Glossary On
Versions: 1 2 3 4 5 6 7 8 9 10 11 12 13 14 15 16 17 18 19 20 21 22 23 24 25
000
FTUS46 KLOX 242323
TAFSMX
TAF
KSMX 242323Z 2500/2524 31008KT P6SM SCT200
     FM250300 VRB03KT 6SM BR OVC007
     FM250700 VRB03KT 4SM BR OVC003
     FM251600 VRB04KT 6SM BR BKN006
     FM252000 30008KT P6SM SCT008=

USA.gov is the U.S. government's official web portal to all federal, state and local government web resources and services.